Xingren, China
Current Conditions -  °F | °C
As of 10:00 PM on Saturday 22 Nov 2014 (Local Time) from ZUGY Reporting Station
Overcast Overcast  
Wind Chill: 59°   Ceiling: 1600
Heat Index: 59°   Visibility: 6mi
Dew Point: 57°   Wind: 4mph
Humidity: 94%   Direction: 190°S
Pressure: 30.03"   Gusts: NA
Location:  25.43°N, 105.18°E
Report Text: ZUGY 221400Z 19002MPS 9999 BKN016 OVC036 15/14 Q1017 NOSIG
Loading
Personal Weather Stations






























Interactive Weather Map New forecast layout! Learn more

10-Day Weather Forecast

Advertisements
Track Severe Weather on mobile